createdAt,value
2022-12-08T00:00:06.397Z,25.25
2022-12-08T00:02:38.803Z,43.83
2022-12-08T00:05:24.447Z,26.65
2022-12-08T00:08:10.237Z,45.22
2022-12-08T00:10:52.290Z,26.15
2022-12-08T00:13:19.004Z,32.22
2022-12-08T00:15:45.735Z,33.35
2022-12-08T00:18:12.573Z,24.23
2022-12-08T00:20:39.315Z,36.30
2022-12-08T00:23:06.099Z,42.28
2022-12-08T00:25:37.045Z,23.67
2022-12-08T00:28:03.890Z,25.30
2022-12-08T00:30:30.660Z,21.23
2022-12-08T00:32:57.463Z,23.88
2022-12-08T00:35:24.186Z,23.45
2022-12-08T00:37:57.519Z,24.02
2022-12-08T00:40:27.499Z,30.02
2022-12-08T00:42:54.170Z,23.75
2022-12-08T00:45:21.186Z,43.22
2022-12-08T00:47:47.907Z,33.67
2022-12-08T00:50:15.238Z,47.63
2022-12-08T00:52:42.099Z,28.55
2022-12-08T00:55:09.338Z,28.80
2022-12-08T00:57:35.961Z,27.02
2022-12-08T01:00:03.051Z,26.30
2022-12-08T01:02:29.940Z,30.48
2022-12-08T01:04:56.764Z,29.08
2022-12-08T01:07:23.537Z,48.30
2022-12-08T01:09:50.278Z,30.65
2022-12-08T01:12:16.984Z,27.33
2022-12-08T01:14:43.680Z,30.17
2022-12-08T01:17:10.642Z,38.40
2022-12-08T01:19:37.833Z,34.08
2022-12-08T01:22:04.520Z,26.48
2022-12-08T01:24:31.784Z,29.05
2022-12-08T01:26:58.454Z,26.08
2022-12-08T01:29:26.765Z,26.70
2022-12-08T01:31:53.520Z,24.27
2022-12-08T01:34:20.276Z,26.63
2022-12-08T01:36:48.023Z,29.65
2022-12-08T01:39:17.423Z,31.52
2022-12-08T01:41:45.151Z,36.45
2022-12-08T01:44:12.664Z,30.42
2022-12-08T01:46:44.775Z,28.80
2022-12-08T01:49:27.443Z,29.90
2022-12-08T01:52:09.585Z,28.98
2022-12-08T01:54:46.395Z,24.70
2022-12-08T01:57:20.960Z,28.17
2022-12-08T01:59:54.782Z,26.83
2022-12-08T02:02:21.732Z,26.83
2022-12-08T02:04:48.583Z,30.00
2022-12-08T02:07:16.564Z,32.08
2022-12-08T02:09:44.216Z,31.33
2022-12-08T02:12:11.723Z,27.98
2022-12-08T02:14:38.953Z,29.20
2022-12-08T02:17:43.668Z,28.83
2022-12-08T02:20:51.880Z,29.38
2022-12-08T02:23:27.717Z,27.35
2022-12-08T02:26:13.659Z,30.65
2022-12-08T02:28:59.098Z,29.60
2022-12-08T02:31:43.936Z,31.23
2022-12-08T02:34:15.975Z,32.25
2022-12-08T02:37:00.781Z,32.47
2022-12-08T02:39:42.535Z,33.03
2022-12-08T02:42:23.057Z,29.85
2022-12-08T02:45:00.275Z,38.05
2022-12-08T02:47:28.443Z,34.85
2022-12-08T02:49:56.431Z,29.92
2022-12-08T02:52:23.175Z,30.38
2022-12-08T02:55:02.084Z,32.15
2022-12-08T02:57:47.674Z,27.10
2022-12-08T03:00:17.873Z,35.80
2022-12-08T03:03:02.713Z,30.27
2022-12-08T03:05:48.068Z,31.08
2022-12-08T03:08:46.121Z,28.58
2022-12-08T03:11:26.365Z,34.63
2022-12-08T03:13:57.492Z,31.30
2022-12-08T03:16:27.002Z,31.63
2022-12-08T03:19:02.349Z,29.27
2022-12-08T03:21:31.562Z,31.85
2022-12-08T03:23:58.345Z,34.00
2022-12-08T03:26:38.902Z,30.70
2022-12-08T03:29:06.470Z,35.38
2022-12-08T03:31:39.111Z,35.17
2022-12-08T03:34:06.686Z,32.13
2022-12-08T03:36:33.578Z,31.77
2022-12-08T03:39:00.414Z,32.33
2022-12-08T03:41:27.159Z,32.38
2022-12-08T03:43:57.150Z,32.38
2022-12-08T03:48:52.349Z,29.17
2022-12-08T03:51:19.692Z,31.42
2022-12-08T03:53:46.875Z,31.60
2022-12-08T03:56:24.834Z,30.50
2022-12-08T03:58:52.658Z,44.85
2022-12-08T04:01:19.793Z,34.67
2022-12-08T04:03:46.837Z,37.45
2022-12-08T04:06:13.734Z,38.28
2022-12-08T04:08:40.887Z,44.30
2022-12-08T04:11:08.216Z,47.85
2022-12-08T04:13:36.955Z,40.65
2022-12-08T04:16:05.159Z,41.22
2022-12-08T04:18:33.444Z,40.10
2022-12-08T04:21:00.292Z,35.40
2022-12-08T04:23:27.372Z,39.03
2022-12-08T04:25:54.536Z,37.40
2022-12-08T04:28:21.898Z,31.73
2022-12-08T04:30:49.701Z,36.10
2022-12-08T04:33:16.948Z,39.38
2022-12-08T04:35:43.666Z,37.63
2022-12-08T04:38:10.368Z,33.28
2022-12-08T04:40:37.119Z,29.75
2022-12-08T04:43:03.965Z,35.45
2022-12-08T04:45:31.230Z,35.05
2022-12-08T04:48:01.455Z,35.72
2022-12-08T04:50:28.494Z,34.47
2022-12-08T04:52:55.293Z,33.92
2022-12-08T04:55:22.052Z,31.17
2022-12-08T04:57:48.769Z,36.20
2022-12-08T05:00:15.886Z,33.08
2022-12-08T05:02:42.827Z,30.83
2022-12-08T05:05:10.599Z,30.45
2022-12-08T05:07:37.575Z,38.13
2022-12-08T05:10:05.136Z,34.60
2022-12-08T05:12:32.013Z,38.72
2022-12-08T05:14:58.768Z,34.47
2022-12-08T05:17:25.640Z,37.83
2022-12-08T05:19:52.374Z,42.70
2022-12-08T05:22:19.276Z,39.15
2022-12-08T05:24:47.831Z,40.80
2022-12-08T05:27:15.151Z,39.72
2022-12-08T05:29:42.458Z,40.78
2022-12-08T05:32:09.336Z,39.78
2022-12-08T05:34:36.083Z,37.97
2022-12-08T05:37:02.788Z,46.30
2022-12-08T05:39:29.570Z,42.22
2022-12-08T05:41:56.312Z,48.45
2022-12-08T05:44:23.022Z,43.22
2022-12-08T05:46:49.787Z,45.05
2022-12-08T05:49:16.436Z,46.55
2022-12-08T05:51:43.355Z,48.95
2022-12-08T05:54:10.430Z,49.25
2022-12-08T05:56:37.137Z,52.60
2022-12-08T05:59:07.121Z,47.05
2022-12-08T06:01:34.169Z,53.78
2022-12-08T06:04:03.244Z,58.28
2022-12-08T06:06:31.082Z,64.90
2022-12-08T06:08:57.869Z,59.67
2022-12-08T06:11:28.383Z,62.78
2022-12-08T06:13:58.802Z,57.05
2022-12-08T06:16:27.305Z,56.60
2022-12-08T06:18:56.670Z,49.00
2022-12-08T06:21:23.531Z,52.80
2022-12-08T06:23:52.785Z,51.75
2022-12-08T06:26:20.269Z,46.30
2022-12-08T06:28:47.344Z,51.65
2022-12-08T06:31:16.991Z,45.90
2022-12-08T06:33:44.104Z,44.45
2022-12-08T06:36:12.917Z,42.63
2022-12-08T06:38:43.326Z,42.25
2022-12-08T06:41:12.004Z,35.55
2022-12-08T06:43:39.280Z,36.17
2022-12-08T06:46:08.465Z,35.42
2022-12-08T06:48:35.466Z,36.80
2022-12-08T06:51:10.243Z,35.85
2022-12-08T06:53:37.903Z,30.50
2022-12-08T06:56:05.849Z,36.72
2022-12-08T06:58:33.030Z,35.03
2022-12-08T07:01:11.607Z,33.25
2022-12-08T07:03:40.100Z,37.58
2022-12-08T07:06:07.752Z,32.33
2022-12-08T07:08:35.096Z,30.38
2022-12-08T07:11:10.567Z,33.53
2022-12-08T07:13:37.677Z,33.13
2022-12-08T07:16:09.135Z,31.27
2022-12-08T07:18:36.611Z,31.73
2022-12-08T07:21:12.115Z,32.67
2022-12-08T07:23:39.075Z,31.50
2022-12-08T07:26:11.229Z,32.28
2022-12-08T07:28:40.208Z,39.13
2022-12-08T07:31:08.715Z,34.88
2022-12-08T07:33:36.232Z,30.45
2022-12-08T07:36:06.450Z,31.40
2022-12-08T07:38:33.330Z,31.05
2022-12-08T07:41:01.492Z,31.73
2022-12-08T07:43:28.482Z,36.75
2022-12-08T07:45:55.233Z,36.30
2022-12-08T07:48:22.267Z,34.67
2022-12-08T07:50:49.246Z,33.78
2022-12-08T07:53:16.074Z,34.83
2022-12-08T07:55:43.947Z,31.13
2022-12-08T07:58:11.428Z,30.60
2022-12-08T08:00:38.202Z,32.63
2022-12-08T08:03:05.028Z,31.80
2022-12-08T08:05:31.865Z,29.27
2022-12-08T08:07:58.672Z,33.58
2022-12-08T08:10:25.626Z,30.45
2022-12-08T08:12:52.283Z,29.38
2022-12-08T08:15:21.193Z,31.63
2022-12-08T08:17:53.611Z,34.97
2022-12-08T08:20:20.953Z,33.67
2022-12-08T08:22:49.376Z,32.15
2022-12-08T08:25:17.134Z,33.92
2022-12-08T08:27:44.044Z,33.30
2022-12-08T08:30:18.147Z,33.60
2022-12-08T08:32:47.720Z,41.15
2022-12-08T08:35:14.384Z,38.25
2022-12-08T08:37:48.327Z,32.47
2022-12-08T08:40:15.721Z,32.58
2022-12-08T08:42:42.379Z,28.25
2022-12-08T08:45:09.534Z,30.05
2022-12-08T08:47:36.182Z,28.55
2022-12-08T08:50:04.699Z,32.00
2022-12-08T08:52:31.641Z,28.27
2022-12-08T08:54:58.388Z,27.88
2022-12-08T08:57:25.983Z,29.50
2022-12-08T08:59:54.066Z,27.23
2022-12-08T09:02:21.867Z,27.85
2022-12-08T09:04:48.687Z,29.65
2022-12-08T09:07:16.235Z,28.08
2022-12-08T09:09:42.955Z,26.58
2022-12-08T09:12:10.521Z,32.75
2022-12-08T09:14:37.413Z,27.85
2022-12-08T09:17:04.865Z,31.95
2022-12-08T09:19:31.555Z,29.10
2022-12-08T09:21:58.280Z,28.17
2022-12-08T09:24:25.034Z,28.42
2022-12-08T09:26:51.853Z,28.73
2022-12-08T09:29:18.688Z,29.80
2022-12-08T09:31:45.405Z,28.92
2022-12-08T09:34:12.950Z,31.73
2022-12-08T09:36:40.541Z,32.15
2022-12-08T09:39:08.003Z,35.30
2022-12-08T09:41:43.258Z,33.30
2022-12-08T09:44:16.350Z,37.05
2022-12-08T09:46:43.963Z,37.85
2022-12-08T09:49:16.444Z,31.48
2022-12-08T09:51:44.846Z,34.72
2022-12-08T09:54:24.064Z,39.65
2022-12-08T09:56:55.145Z,35.65
2022-12-08T09:59:31.956Z,37.60
2022-12-08T10:02:10.727Z,44.88
2022-12-08T10:04:38.830Z,41.20
2022-12-08T10:07:47.405Z,38.65
2022-12-08T10:10:35.767Z,35.83
2022-12-08T10:13:05.833Z,36.22
2022-12-08T10:18:17.806Z,31.08
2022-12-08T10:20:47.681Z,28.63
2022-12-08T10:23:38.625Z,27.77
2022-12-08T10:26:11.601Z,30.15
2022-12-08T10:28:44.494Z,27.90
2022-12-08T10:31:24.296Z,29.35
2022-12-08T10:33:59.286Z,28.80
2022-12-08T10:36:46.126Z,27.58
2022-12-08T10:39:31.898Z,29.88
2022-12-08T10:42:06.362Z,28.85
2022-12-08T10:44:33.428Z,28.08
2022-12-08T10:47:00.190Z,31.00
2022-12-08T10:49:32.357Z,30.98
2022-12-08T10:51:59.095Z,27.00
2022-12-08T10:54:34.712Z,33.92
2022-12-08T10:57:01.658Z,35.00
2022-12-08T10:59:29.260Z,36.67
2022-12-08T11:01:57.574Z,34.65
2022-12-08T11:04:36.462Z,33.50
2022-12-08T11:07:06.320Z,30.80
2022-12-08T11:09:48.679Z,28.17
2022-12-08T11:12:15.663Z,32.45
2022-12-08T11:14:42.329Z,26.77
2022-12-08T11:17:15.857Z,28.98
2022-12-08T11:19:55.868Z,30.30
2022-12-08T11:22:24.732Z,30.20
2022-12-08T11:25:16.087Z,31.45
2022-12-08T11:27:45.218Z,33.03
2022-12-08T11:30:47.418Z,29.75
2022-12-08T11:33:19.598Z,28.48
2022-12-08T11:35:51.340Z,28.33
2022-12-08T11:38:22.836Z,30.10
2022-12-08T11:41:16.934Z,25.67
2022-12-08T11:43:56.572Z,32.50
2022-12-08T11:46:26.387Z,32.95
2022-12-08T11:49:13.747Z,29.67
2022-12-08T11:51:48.240Z,27.23
2022-12-08T11:54:29.946Z,30.77
2022-12-08T11:56:58.718Z,29.58
2022-12-08T11:59:31.730Z,31.65
2022-12-08T12:02:00.918Z,32.22
2022-12-08T12:04:42.316Z,30.53
2022-12-08T12:07:45.923Z,33.17
2022-12-08T12:10:28.130Z,27.85
2022-12-08T12:13:11.525Z,28.40
2022-12-08T12:16:03.398Z,32.95
2022-12-08T12:18:41.124Z,28.67
2022-12-08T12:21:16.953Z,25.88
2022-12-08T12:23:49.809Z,30.17
2022-12-08T12:26:29.577Z,44.55
2022-12-08T12:29:11.335Z,43.97
2022-12-08T12:31:43.264Z,35.33
2022-12-08T12:34:25.326Z,44.15
2022-12-08T12:37:07.081Z,32.75
2022-12-08T12:39:53.728Z,31.70
2022-12-08T12:42:55.809Z,28.65
2022-12-08T12:45:22.531Z,31.77
2022-12-08T12:48:14.554Z,32.65
2022-12-08T12:50:43.337Z,31.58
2022-12-08T12:53:16.415Z,31.15
2022-12-08T12:55:46.890Z,28.55
2022-12-08T12:58:36.032Z,30.60
2022-12-08T13:01:12.130Z,30.77
2022-12-08T13:03:45.873Z,32.90
2022-12-08T13:06:15.366Z,34.70
2022-12-08T13:08:55.248Z,36.42
2022-12-08T13:11:23.500Z,32.63
2022-12-08T13:13:58.810Z,27.83
2022-12-08T13:16:27.708Z,33.08
2022-12-08T13:18:59.645Z,31.60
2022-12-08T13:21:34.624Z,33.63
2022-12-08T13:24:10.356Z,29.67
2022-12-08T13:27:05.688Z,28.00
2022-12-08T13:29:33.969Z,30.98
2022-12-08T13:32:24.217Z,32.78
2022-12-08T13:34:59.167Z,31.13
2022-12-08T13:37:29.644Z,30.52
2022-12-08T13:40:05.695Z,29.23
2022-12-08T13:42:50.724Z,31.00
2022-12-08T13:46:12.259Z,35.53
2022-12-08T13:49:18.543Z,37.80
2022-12-08T13:57:32.871Z,32.92
2022-12-08T14:00:16.171Z,42.60
2022-12-08T14:02:48.040Z,37.88
2022-12-08T14:05:19.103Z,38.92
2022-12-08T14:07:48.205Z,39.67
2022-12-08T14:10:41.451Z,40.80
2022-12-08T14:13:12.498Z,39.65
2022-12-08T14:15:40.361Z,41.17
2022-12-08T14:18:23.926Z,33.30
2022-12-08T14:21:20.850Z,36.58
2022-12-08T14:23:48.907Z,40.35
2022-12-08T14:26:15.551Z,40.90
2022-12-08T14:28:45.179Z,40.35
2022-12-08T14:31:14.745Z,40.42
2022-12-08T14:33:41.827Z,39.38
2022-12-08T14:36:09.789Z,41.28
2022-12-08T14:38:36.582Z,42.60
2022-12-08T14:41:09.285Z,45.08
2022-12-08T14:43:36.292Z,50.25
2022-12-08T14:46:18.614Z,45.50
2022-12-08T14:48:45.830Z,47.47
2022-12-08T14:51:21.582Z,46.53
2022-12-08T14:54:01.032Z,42.53
2022-12-08T14:56:34.009Z,42.75
2022-12-08T14:59:21.000Z,39.17
2022-12-08T15:01:50.006Z,42.28
2022-12-08T15:04:25.762Z,46.45
2022-12-08T15:06:54.484Z,47.53
2022-12-08T15:09:36.450Z,43.53
2022-12-08T15:12:06.570Z,44.03
2022-12-08T15:17:01.699Z,44.55
2022-12-08T15:19:31.592Z,39.38
2022-12-08T15:22:11.945Z,39.03
2022-12-08T15:24:38.768Z,41.17
2022-12-08T15:27:05.431Z,43.97
2022-12-08T15:29:32.255Z,37.60
2022-12-08T15:32:01.660Z,42.88
2022-12-08T15:34:28.338Z,40.58
2022-12-08T15:36:56.390Z,47.72
2022-12-08T15:39:38.392Z,43.25
2022-12-08T15:42:12.544Z,47.67
2022-12-08T15:44:39.873Z,42.40
2022-12-08T15:47:11.732Z,47.08
2022-12-08T15:49:39.050Z,42.55
2022-12-08T15:52:12.325Z,42.67
2022-12-08T15:54:39.150Z,44.67
2022-12-08T15:57:40.303Z,42.70
2022-12-08T15:59:53.234Z,43.05
2022-12-08T16:02:22.747Z,39.92
2022-12-08T16:07:38.395Z,44.60
2022-12-08T16:10:06.664Z,41.08
2022-12-08T16:15:58.504Z,42.40
2022-12-08T16:18:30.012Z,47.65
2022-12-08T16:23:45.170Z,43.45
2022-12-08T16:26:54.492Z,44.60
2022-12-08T16:29:00.498Z,43.13
2022-12-08T16:31:27.326Z,44.80
2022-12-08T16:33:54.167Z,42.42
2022-12-08T16:36:20.898Z,37.70
2022-12-08T16:38:47.622Z,37.97
2022-12-08T16:41:34.281Z,35.83
2022-12-08T16:44:05.735Z,41.45
2022-12-08T16:46:34.136Z,43.55
2022-12-08T16:49:01.003Z,41.58
2022-12-08T16:51:27.957Z,42.75
2022-12-08T16:53:55.650Z,49.15
2022-12-08T16:56:26.355Z,42.97
2022-12-08T16:58:57.433Z,45.42
2022-12-08T17:01:24.577Z,43.92
2022-12-08T17:04:14.441Z,46.63
2022-12-08T17:06:38.116Z,41.05
2022-12-08T17:09:04.992Z,37.72
2022-12-08T17:11:36.289Z,49.05
2022-12-08T17:14:05.968Z,54.60
2022-12-08T17:16:32.734Z,49.95
2022-12-08T17:18:59.594Z,55.65
2022-12-08T17:21:26.348Z,55.97
2022-12-08T17:23:53.097Z,48.25
2022-12-08T17:26:19.780Z,42.70
2022-12-08T17:29:01.905Z,50.28
2022-12-08T17:31:31.225Z,44.58
2022-12-08T17:34:03.246Z,47.20
2022-12-08T17:36:30.161Z,45.65
2022-12-08T17:38:59.731Z,44.63
2022-12-08T17:41:27.053Z,46.55
2022-12-08T17:43:53.771Z,50.10
2022-12-08T17:46:21.736Z,44.90
2022-12-08T17:48:49.293Z,48.42
2022-12-08T17:51:16.229Z,42.40
2022-12-08T17:53:43.089Z,43.50
2022-12-08T17:56:21.452Z,43.80
2022-12-08T17:58:54.397Z,45.22
2022-12-08T18:01:23.620Z,38.15
2022-12-08T18:03:50.923Z,47.50
2022-12-08T18:06:17.744Z,48.97
2022-12-08T18:08:45.044Z,53.35
2022-12-08T18:11:19.422Z,48.42
2022-12-08T18:13:48.627Z,47.72
2022-12-08T18:16:15.908Z,50.77
2022-12-08T18:18:42.967Z,46.13
2022-12-08T18:21:09.764Z,49.85
2022-12-08T18:23:41.488Z,50.40
2022-12-08T18:26:10.742Z,49.88
2022-12-08T18:28:38.275Z,48.60
2022-12-08T18:31:24.309Z,47.97
2022-12-08T18:33:52.236Z,49.30
2022-12-08T18:36:22.087Z,46.30
2022-12-08T18:38:49.577Z,44.05
2022-12-08T18:41:20.576Z,47.45
2022-12-08T18:43:47.372Z,48.85
2022-12-08T18:46:15.238Z,51.30
2022-12-08T18:48:44.541Z,54.05
2022-12-08T18:51:12.525Z,51.50
2022-12-08T18:53:39.974Z,54.72
2022-12-08T18:56:07.495Z,53.17
2022-12-08T18:58:34.981Z,53.55
2022-12-08T19:01:01.696Z,59.63
2022-12-08T19:03:28.459Z,55.70
2022-12-08T19:06:05.615Z,51.85
2022-12-08T19:08:32.572Z,56.55
2022-12-08T19:11:00.122Z,55.05
2022-12-08T19:13:27.442Z,48.42
2022-12-08T19:15:54.722Z,54.60
2022-12-08T19:18:21.569Z,50.88
2022-12-08T19:20:48.277Z,50.97
2022-12-08T19:23:15.751Z,51.00
2022-12-08T19:25:42.509Z,50.47
2022-12-08T19:28:09.346Z,51.67
2022-12-08T19:30:36.115Z,51.67
2022-12-08T19:33:02.852Z,52.10
2022-12-08T19:35:29.592Z,52.85
2022-12-08T19:37:56.245Z,51.72
2022-12-08T19:40:41.478Z,55.15
2022-12-08T19:43:36.718Z,55.22
2022-12-08T19:46:03.649Z,49.97
2022-12-08T19:48:30.643Z,51.22
2022-12-08T19:50:57.635Z,52.15
2022-12-08T19:53:24.637Z,48.92
2022-12-08T19:55:51.297Z,46.13
2022-12-08T19:58:19.483Z,47.55
2022-12-08T20:00:46.881Z,53.35
2022-12-08T20:03:18.996Z,49.72
2022-12-08T20:05:47.532Z,58.42
2022-12-08T20:08:14.511Z,59.28
2022-12-08T20:10:43.276Z,59.05
2022-12-08T20:13:30.541Z,62.75
2022-12-08T20:15:57.922Z,60.45
2022-12-08T20:18:25.468Z,52.42
2022-12-08T20:20:52.317Z,48.35
2022-12-08T20:23:19.219Z,52.65
2022-12-08T20:25:47.798Z,50.70
2022-12-08T20:28:14.803Z,52.65
2022-12-08T20:30:43.165Z,51.92
2022-12-08T20:33:13.501Z,54.03
2022-12-08T20:35:40.279Z,53.85
2022-12-08T20:38:07.215Z,51.92
2022-12-08T20:40:34.029Z,50.05
2022-12-08T20:43:00.794Z,50.47
2022-12-08T20:45:27.714Z,48.00
2022-12-08T20:47:54.446Z,52.80
2022-12-08T20:50:21.293Z,47.83
2022-12-08T20:52:48.189Z,47.67
2022-12-08T20:55:15.136Z,59.70
2022-12-08T20:57:42.079Z,59.35
2022-12-08T21:00:09.832Z,56.13
2022-12-08T21:02:41.709Z,60.22
2022-12-08T21:05:12.233Z,56.58
2022-12-08T21:07:39.171Z,57.13
2022-12-08T21:10:07.272Z,56.10
2022-12-08T21:12:34.354Z,55.70
2022-12-08T21:15:01.276Z,59.40
2022-12-08T21:17:28.193Z,58.17
2022-12-08T21:19:54.923Z,62.47
2022-12-08T21:22:21.724Z,56.33
2022-12-08T21:24:48.507Z,60.42
2022-12-08T21:27:15.270Z,52.25
2022-12-08T21:29:42.029Z,52.30
2022-12-08T21:32:08.939Z,56.10
2022-12-08T21:34:35.842Z,53.97
2022-12-08T21:37:02.794Z,54.80
2022-12-08T21:39:29.589Z,50.35
2022-12-08T21:42:14.963Z,54.10
2022-12-08T21:44:41.761Z,48.90
2022-12-08T21:47:08.542Z,51.08
2022-12-08T21:49:35.617Z,46.97
2022-12-08T21:52:02.367Z,44.53
2022-12-08T21:54:29.304Z,48.95
2022-12-08T21:56:56.181Z,46.25
2022-12-08T21:59:23.021Z,53.08
2022-12-08T22:01:49.991Z,45.05
2022-12-08T22:04:19.134Z,48.22
2022-12-08T22:06:46.338Z,53.05
2022-12-08T22:09:15.307Z,48.45
2022-12-08T22:11:43.127Z,48.40
2022-12-08T22:14:14.466Z,57.47
2022-12-08T22:16:42.245Z,56.58
2022-12-08T22:19:09.127Z,57.28
2022-12-08T22:21:35.987Z,60.97
2022-12-08T22:24:02.639Z,61.20
2022-12-08T22:26:29.417Z,58.25
2022-12-08T22:28:56.206Z,62.53
2022-12-08T22:31:23.052Z,62.90
2022-12-08T22:33:51.095Z,60.63
2022-12-08T22:36:21.424Z,61.78
2022-12-08T22:38:48.330Z,69.38
2022-12-08T22:41:15.090Z,63.60
2022-12-08T22:43:42.147Z,66.80
2022-12-08T22:46:22.749Z,61.70
2022-12-08T22:48:50.653Z,65.43
2022-12-08T22:51:18.206Z,68.75
2022-12-08T22:53:46.150Z,64.43
2022-12-08T22:56:15.346Z,62.45
2022-12-08T22:58:44.149Z,60.65
2022-12-08T23:01:25.484Z,53.20
2022-12-08T23:03:52.553Z,52.63
2022-12-08T23:06:19.761Z,57.35
2022-12-08T23:08:46.811Z,59.60
2022-12-08T23:11:13.713Z,57.65
2022-12-08T23:13:40.768Z,58.15
2022-12-08T23:16:09.714Z,56.95
2022-12-08T23:18:37.501Z,58.28
2022-12-08T23:21:09.567Z,57.20
2022-12-08T23:23:36.581Z,57.80
2022-12-08T23:26:04.479Z,57.65
2022-12-08T23:28:31.282Z,61.00
2022-12-08T23:30:58.149Z,54.78
2022-12-08T23:33:25.126Z,56.20
2022-12-08T23:35:58.605Z,54.95
2022-12-08T23:38:26.409Z,51.78
2022-12-08T23:40:53.224Z,54.33
2022-12-08T23:43:20.488Z,52.95
2022-12-08T23:45:48.526Z,57.00
2022-12-08T23:48:15.589Z,52.35
2022-12-08T23:50:42.473Z,52.30
2022-12-08T23:53:09.182Z,51.70
2022-12-08T23:55:36.062Z,51.67
2022-12-08T23:58:03.034Z,52.20
